Time;durP1;ratioP1;P1;durP2;ratioP2;P2;SDS_P1;SDS_P2;PMS_P1;PMS_P2;Temp;Humidity;BMP_temperature;BMP_pressure;BME280_temperature;BME280_humidity;BME280_pressure;Samples;Min_cycle;Max_cycle;Signal;HPM_P1;HPM_P2
2023/11/08 00:05:57;;;;;;;16.20;9.00;;;;;;;8.93;100.00;100059.52;223642;1268;138817;-83
2023/11/08 00:11:58;;;;;;;16.60;8.30;;;;;;;8.92;100.00;100059.35;223080;1267;139761;-83
2023/11/08 00:18:00;;;;;;;17.50;8.00;;;;;;;8.89;100.00;100056.10;223596;1265;138974;-83
2023/11/08 00:24:02;;;;;;;16.80;7.60;;;;;;;8.87;100.00;100058.50;223568;1269;138945;-83
2023/11/08 00:30:02;;;;;;;14.70;7.20;;;;;;;8.82;100.00;100058.44;223207;1265;140350;-83
2023/11/08 00:35:55;;;;;;;;;;;;;;;;;;;;;
2023/11/08 00:41:58;;;;;;;15.70;6.80;;;;;;;8.72;100.00;100061.08;223136;1266;139976;-83
2023/11/08 00:47:50;;;;;;;17.60;6.80;;;;;;;8.67;100.00;100061.95;223782;1266;138839;-83
2023/11/08 00:53:52;;;;;;;13.10;6.10;;;;;;;8.65;100.00;100057.60;223682;1265;138572;-83
2023/11/08 01:05:56;;;;;;;9.60;4.80;;;;;;;8.61;100.00;100058.48;223651;1265;138636;-83
2023/11/08 01:17:57;;;;;;;13.30;4.90;;;;;;;8.53;100.00;100064.34;223587;1265;138794;-83
2023/11/08 01:24:00;;;;;;;11.40;5.40;;;;;;;8.50;100.00;100065.10;223765;1265;138522;-83
2023/11/08 01:29:51;;;;;;;;;;;;;;;;;;;;;
2023/11/08 01:35:49;;;;;;;11.60;5.20;;;;;;;8.49;100.00;100066.95;223728;1265;138624;-83
2023/11/08 01:41:51;;;;;;;10.70;5.20;;;;;;;8.49;100.00;100062.73;223141;1266;139427;-83
2023/11/08 01:47:47;;;;;;;;;;;;;;;;;;;;;
2023/11/08 01:53:48;;;;;;;9.30;4.20;;;;;;;8.51;100.00;100062.60;223575;1265;139281;-83
2023/11/08 01:59:40;;;;;;;9.90;3.70;;;;;;;8.50;100.00;100060.08;223111;1269;140217;-82
2023/11/08 02:05:42;;;;;;;8.40;3.70;;;;;;;8.50;100.00;100061.17;223735;1265;138624;-83
2023/11/08 02:11:41;;;;;;;;;;;;;;;;;;;;;
2023/11/08 02:23:46;;;;;;;9.10;3.90;;;;;;;8.53;100.00;100065.52;223670;1265;139254;-83
2023/11/08 02:35:47;;;;;;;7.30;3.50;;;;;;;8.53;100.00;100070.23;223783;1265;138338;-84
2023/11/08 02:47:50;;;;;;;8.40;3.60;;;;;;;8.55;100.00;100072.59;223751;1265;139011;-83
2023/11/08 02:53:52;;;;;;;7.40;2.80;;;;;;;8.54;100.00;100069.39;223729;1265;221678;-83
2023/11/08 02:59:52;;;;;;;7.00;3.20;;;;;;;8.55;100.00;100072.76;223081;1265;139903;-84
2023/11/08 03:05:53;;;;;;;7.90;3.00;;;;;;;8.54;100.00;100078.70;223762;1265;138439;-84
2023/11/08 03:11:57;;;;;;;6.60;3.00;;;;;;;8.55;100.00;100078.77;223118;1266;139641;-83
2023/11/08 03:17:56;;;;;;;5.10;2.50;;;;;;;8.51;100.00;100077.65;223644;1265;139704;-84
2023/11/08 03:24:00;;;;;;;8.80;2.90;;;;;;;8.49;100.00;100080.52;223610;1265;138763;-83
2023/11/08 03:42:00;;;;;;;4.30;2.00;;;;;;;8.44;100.00;100083.66;223313;1265;209805;-84
2023/11/08 03:48:01;;;;;;;6.40;2.10;;;;;;;8.43;100.00;100085.45;223781;1265;138998;-84
2023/11/08 03:54:04;;;;;;;6.00;2.20;;;;;;;8.43;100.00;100085.06;223732;1265;138920;-83
2023/11/08 03:59:55;;;;;;;;;;;;;;;;;;;;;
2023/11/08 04:05:55;;;;;;;;;;;;;;;;;;;;;
2023/11/08 04:17:42;;;;;;;;;;;;;;;;;;;;;
2023/11/08 04:23:45;;;;;;;5.40;2.50;;;;;;;8.37;100.00;100093.35;223763;1265;247833;-83
2023/11/08 04:29:45;;;;;;;6.00;2.60;;;;;;;8.34;100.00;100101.53;223335;1265;139109;-83
2023/11/08 04:35:46;;;;;;;6.00;2.40;;;;;;;8.32;100.00;100108.87;223747;1265;139075;-83
2023/11/08 04:41:47;;;;;;;6.10;2.20;;;;;;;8.32;100.00;100109.71;223161;1265;139716;-84
2023/11/08 04:47:49;;;;;;;5.10;2.50;;;;;;;8.29;100.00;100104.90;223787;1269;138930;-83
2023/11/08 04:53:45;;;;;;;6.30;2.50;;;;;;;8.28;100.00;100105.83;223684;1265;138348;-83
2023/11/08 04:59:44;;;;;;;;;;;;;;;;;;;;;
2023/11/08 05:05:30;;;;;;;7.90;2.80;;;;;;;8.25;100.00;100109.08;223622;1265;138335;-84
2023/11/08 05:11:29;;;;;;;;;;;;;;;;;;;;;
2023/11/08 05:17:31;;;;;;;7.20;3.10;;;;;;;8.23;100.00;100112.95;223646;1265;138491;-83
2023/11/08 05:23:33;;;;;;;8.30;3.10;;;;;;;8.24;100.00;100107.10;223899;1265;139073;-84
2023/11/08 05:29:34;;;;;;;6.40;2.90;;;;;;;8.23;100.00;100112.73;223251;1265;139509;-84
2023/11/08 05:35:36;;;;;;;5.90;2.20;;;;;;;8.23;100.00;100115.31;223853;1265;139078;-84
2023/11/08 05:47:39;;;;;;;9.00;3.10;;;;;;;8.22;100.00;100120.63;223689;1265;138711;-83
2023/11/08 05:53:37;;;;;;;73.40;33.00;;;;;;;8.23;100.00;100129.02;223722;1265;139521;-83
2023/11/08 05:59:37;;;;;;;11.90;3.40;;;;;;;8.23;100.00;100128.15;223213;1265;140353;-83
2023/11/08 06:05:29;;;;;;;;;;;;;;;;;;;;;
2023/11/08 06:11:29;;;;;;;;;;;;;;;;;;;;;
2023/11/08 06:17:33;;;;;;;14.90;10.20;;;;;;;8.24;100.00;100146.58;223862;1265;138834;-83
2023/11/08 06:23:34;;;;;;;17.80;11.50;;;;;;;8.25;100.00;100150.73;223739;1265;138764;-84
2023/11/08 06:29:25;;;;;;;19.30;11.40;;;;;;;8.25;100.00;100144.63;223184;1265;139796;-84
2023/11/08 06:35:26;;;;;;;17.30;11.70;;;;;;;8.26;100.00;100151.22;223621;1265;139765;-84
2023/11/08 06:47:28;;;;;;;;;;;;;;;;;;;;;
2023/11/08 06:53:30;;;;;;;12.40;7.40;;;;;;;8.28;100.00;100160.43;223578;1265;248072;-83
2023/11/08 07:05:33;;;;;;;9.50;4.30;;;;;;;8.34;100.00;100166.46;223566;1265;138758;-82
2023/11/08 07:11:27;;;;;;;11.30;4.50;;;;;;;8.34;100.00;100165.55;223215;1265;139934;-84
2023/11/08 07:17:30;;;;;;;10.40;4.80;;;;;;;8.36;100.00;100164.79;223618;1265;139129;-84
2023/11/08 07:23:22;;;;;;;12.80;4.50;;;;;;;8.37;100.00;100171.06;223670;1265;138723;-83
2023/11/08 07:29:11;;;;;;;11.00;4.10;;;;;;;8.42;100.00;100175.67;223168;1265;140349;-83
2023/11/08 07:35:12;;;;;;;11.10;5.20;;;;;;;8.45;100.00;100180.03;223663;1265;139256;-83
2023/11/08 07:41:15;;;;;;;8.70;4.20;;;;;;;8.49;100.00;100182.53;222987;1266;139981;-84
2023/11/08 07:47:15;;;;;;;9.20;4.70;;;;;;;8.52;100.00;100184.38;223590;1265;138548;-84
2023/11/08 07:53:17;;;;;;;9.80;4.10;;;;;;;8.52;100.00;100183.75;223402;1265;139239;-84
2023/11/08 07:59:18;;;;;;;11.80;4.70;;;;;;;8.56;100.00;100180.99;223213;1265;139598;-85
2023/11/08 08:05:13;;;;;;;10.40;3.60;;;;;;;8.64;100.00;100185.36;223782;1265;139538;-84
2023/11/08 08:11:14;;;;;;;10.60;4.00;;;;;;;8.77;100.00;100183.75;223124;1265;139530;-83
2023/11/08 08:17:04;;;;;;;9.30;3.60;;;;;;;8.95;100.00;100180.06;223624;1266;138815;-84
2023/11/08 08:23:09;;;;;;;7.30;3.20;;;;;;;9.27;100.00;100179.46;223151;1265;140231;-84
2023/11/08 08:29:32;;;;;;;10.80;3.20;;;;;;;9.58;100.00;100181.80;223118;1265;139543;-83
2023/11/08 08:41:11;;;;;;;7.50;3.00;;;;;;;9.83;100.00;100191.00;223154;1265;139981;-84
2023/11/08 08:47:12;;;;;;;8.70;2.60;;;;;;;9.92;100.00;100188.27;223594;1265;139060;-85
2023/11/08 08:53:06;;;;;;;6.50;2.60;;;;;;;9.90;100.00;100182.83;223332;1266;138642;-84
2023/11/08 08:59:09;;;;;;;10.00;3.20;;;;;;;9.98;100.00;100182.20;223307;1265;139591;-83
2023/11/08 09:05:07;;;;;;;8.00;3.60;;;;;;;10.04;100.00;100183.63;223554;1269;138902;-82
2023/11/08 09:11:10;;;;;;;7.50;2.90;;;;;;;10.09;100.00;100190.02;223078;1265;140092;-84
2023/11/08 09:17:09;;;;;;;10.30;2.80;;;;;;;10.10;100.00;100193.97;223595;1265;139470;-83
2023/11/08 09:23:10;;;;;;;6.10;2.80;;;;;;;10.10;100.00;100190.11;223143;1265;141504;-83
2023/11/08 09:29:03;;;;;;;;;;;;;;;;;;;;;
2023/11/08 09:35:06;;;;;;;7.00;2.50;;;;;;;10.19;100.00;100186.52;219685;1266;138965;-83
2023/11/08 09:41:00;;;;;;;6.40;2.90;;;;;;;10.22;100.00;100200.20;223184;1266;140237;-83
2023/11/08 09:47:26;;;;;;;4.80;2.60;;;;;;;10.28;100.00;100201.50;223765;1266;138844;-82
2023/11/08 09:53:32;;;;;;;12.10;2.50;;;;;;;10.26;100.00;100199.14;223059;1266;140118;-83
2023/11/08 09:59:15;;;;;;;10.50;3.10;;;;;;;10.32;100.00;100194.70;223102;1265;140342;-83
2023/11/08 10:05:16;;;;;;;7.20;2.40;;;;;;;10.32;100.00;100194.88;223733;1265;139627;-83
2023/11/08 10:11:18;;;;;;;10.60;2.60;;;;;;;10.35;100.00;100188.61;223233;1266;140469;-83
2023/11/08 10:23:20;;;;;;;7.80;2.00;;;;;;;10.46;100.00;100183.66;223536;1266;366955;-83
2023/11/08 10:35:37;;;;;;;6.10;1.70;;;;;;;10.44;100.00;100180.04;223694;1265;139027;-83
2023/11/08 10:41:33;;;;;;;6.90;2.10;;;;;;;10.45;100.00;100178.63;223079;1265;140187;-85
2023/11/08 10:47:37;;;;;;;10.20;3.00;;;;;;;10.44;100.00;100174.54;223796;1265;139069;-85
2023/11/08 10:53:22;;;;;;;7.40;2.30;;;;;;;10.45;100.00;100180.27;223535;1266;138965;-84
2023/11/08 10:59:23;;;;;;;7.30;2.00;;;;;;;10.47;100.00;100178.39;223159;1266;140089;-83
2023/11/08 11:05:22;;;;;;;6.00;2.10;;;;;;;10.46;100.00;100173.52;223675;1266;139064;-83
2023/11/08 11:17:24;;;;;;;4.90;1.80;;;;;;;10.47;100.00;100176.59;223742;1266;138850;-82
2023/11/08 11:23:25;;;;;;;6.70;2.00;;;;;;;10.50;100.00;100174.58;223349;1266;139111;-84
2023/11/08 11:29:30;;;;;;;;;;;;;;;;;;;;;
2023/11/08 11:35:35;;;;;;;8.80;2.30;;;;;;;10.59;100.00;100171.80;223722;1266;139451;-84
2023/11/08 11:41:29;;;;;;;5.50;1.80;;;;;;;10.59;100.00;100173.39;223101;1266;139706;-83
2023/11/08 11:47:28;;;;;;;;;;;;;;;;;;;;;
2023/11/08 11:53:30;;;;;;;7.90;1.90;;;;;;;10.41;100.00;100181.42;223696;1266;138983;-84
2023/11/08 11:59:31;;;;;;;4.20;1.70;;;;;;;10.34;100.00;100181.52;223155;1269;140040;-84
2023/11/08 12:05:33;;;;;;;6.00;1.80;;;;;;;10.30;100.00;100187.23;223692;1266;139470;-83
2023/11/08 12:11:34;;;;;;;7.00;2.30;;;;;;;10.28;100.00;100183.35;223120;1266;140217;-83
2023/11/08 12:23:56;;;;;;;6.00;1.90;;;;;;;10.15;100.00;100183.41;223703;1269;139269;-86
2023/11/08 12:29:40;;;;;;;7.10;2.60;;;;;;;10.09;100.00;100185.23;223087;1266;140808;-83
2023/11/08 12:35:42;;;;;;;7.90;2.70;;;;;;;10.05;100.00;100186.30;223730;1266;139185;-83
2023/11/08 12:41:44;;;;;;;8.00;2.60;;;;;;;10.07;100.00;100191.81;223290;1266;139210;-83
2023/11/08 12:47:46;;;;;;;10.60;2.50;;;;;;;10.04;100.00;100192.58;223760;1269;138639;-83
2023/11/08 12:53:37;;;;;;;;;;;;;;;;;;;;;
2023/11/08 12:59:39;;;;;;;8.80;2.40;;;;;;;10.04;100.00;100189.89;223012;1266;140243;-83
2023/11/08 13:05:34;;;;;;;5.40;1.90;;;;;;;10.07;100.00;100193.77;223563;1266;138775;-84
2023/11/08 13:23:34;;;;;;;8.80;2.50;;;;;;;10.07;100.00;100190.73;223589;1269;138802;-83
2023/11/08 13:29:36;;;;;;;5.30;2.30;;;;;;;10.10;100.00;100194.19;223172;1266;140209;-84
2023/11/08 13:41:38;;;;;;;8.50;3.50;;;;;;;10.15;100.00;100193.30;223059;1270;140319;-83
2023/11/08 13:48:12;;;;;;;8.10;3.30;;;;;;;10.14;100.00;100191.02;223716;1266;139354;-83
2023/11/08 13:53:46;;;;;;;7.40;3.70;;;;;;;10.13;100.00;100195.88;223341;1266;139437;-84
2023/11/08 13:59:47;;;;;;;9.20;3.70;;;;;;;10.11;100.00;100194.38;223135;1269;139968;-83
2023/11/08 14:05:15;;;;;;;10.40;3.00;;;;;;;10.11;100.00;100195.31;223609;1266;138934;-84
2023/11/08 14:11:16;;;;;;;8.40;3.50;;;;;;;10.11;100.00;100191.23;223114;1270;140103;-83
2023/11/08 14:17:21;;;;;;;6.60;2.70;;;;;;;10.09;100.00;100190.81;223703;1265;138809;-83
2023/11/08 14:23:18;;;;;;;8.50;2.80;;;;;;;10.10;100.00;100195.70;223660;1266;138948;-84
2023/11/08 14:29:19;;;;;;;9.70;3.20;;;;;;;10.06;100.00;100195.04;223212;1266;139948;-83
2023/11/08 14:35:02;;;;;;;;;;;;;;;;;;;;;
2023/11/08 14:41:04;;;;;;;8.50;3.80;;;;;;;9.99;100.00;100194.30;223162;1265;140803;-83
2023/11/08 14:46:51;;;;;;;8.70;3.80;;;;;;;9.96;100.00;100199.52;223595;1267;138575;-83
2023/11/08 14:52:52;;;;;;;9.00;3.80;;;;;;;9.92;100.00;100195.48;223011;1269;139649;-84
2023/11/08 14:58:53;;;;;;;11.70;4.10;;;;;;;9.90;100.00;100195.06;223049;1265;139794;-84
2023/11/08 15:04:55;;;;;;;13.50;5.60;;;;;;;9.87;100.00;100195.91;223574;1269;138639;-83
2023/11/08 15:10:56;;;;;;;12.10;4.70;;;;;;;9.86;100.00;100199.76;223185;1266;139999;-84
2023/11/08 15:16:57;;;;;;;14.60;5.60;;;;;;;9.86;100.00;100199.60;223708;1267;139140;-83
2023/11/08 15:22:47;;;;;;;;;;;;;;;;;;;;;
2023/11/08 15:28:48;;;;;;;14.70;6.20;;;;;;;9.81;100.00;100204.40;223147;1267;140107;-83
2023/11/08 15:34:49;;;;;;;14.10;5.20;;;;;;;9.77;100.00;100202.23;223764;1267;139047;-84
2023/11/08 15:40:50;;;;;;;11.70;5.40;;;;;;;9.74;100.00;100206.45;223159;1267;139927;-83
2023/11/08 15:46:51;;;;;;;12.40;5.80;;;;;;;9.69;100.00;100204.66;223584;1267;139395;-83
2023/11/08 15:52:52;;;;;;;14.10;6.00;;;;;;;9.63;100.00;100201.79;223207;1267;139900;-84
2023/11/08 15:58:53;;;;;;;14.90;5.70;;;;;;;9.59;100.00;100199.85;223179;1265;139988;-83
2023/11/08 16:04:47;;;;;;;15.80;6.10;;;;;;;9.57;100.00;100209.48;223703;1267;138766;-83
2023/11/08 16:10:48;;;;;;;12.50;5.60;;;;;;;9.55;100.00;100214.64;223189;1266;139842;-84
2023/11/08 16:16:50;;;;;;;10.70;4.70;;;;;;;9.53;100.00;100213.44;223742;1269;139098;-86
2023/11/08 16:22:51;;;;;;;14.60;6.40;;;;;;;9.52;100.00;100225.59;222989;1267;139863;-86
2023/11/08 16:34:31;;;;;;;;;;;;;;;;;;;;;
2023/11/08 16:40:32;;;;;;;8.70;3.20;;;;;;;9.31;100.00;100246.51;223165;1267;140569;-86
2023/11/08 16:46:34;;;;;;;6.00;2.40;;;;;;;9.19;100.00;100268.01;223684;1266;139043;-86
2023/11/08 16:52:38;;;;;;;7.80;3.30;;;;;;;9.06;100.00;100258.57;223047;1266;139620;-85
2023/11/08 16:58:23;;;;;;;13.90;8.00;;;;;;;8.97;100.00;100266.29;222997;1267;140516;-85
2023/11/08 17:04:05;;;;;;;;;;;;;;;;;;;;;
2023/11/08 17:10:03;;;;;;;6.40;2.30;;;;;;;8.81;100.00;100266.11;223203;1265;139784;-84
2023/11/08 17:16:03;;;;;;;;;;;;;;;;;;;;;
2023/11/08 17:21:54;;;;;;;5.30;2.30;;;;;;;8.65;100.00;100260.91;222902;1266;140138;-85
2023/11/08 17:27:45;;;;;;;;;;;;;;;;;;;;;
2023/11/08 17:33:54;;;;;;;;;;;;;;;;;;;;;
2023/11/08 17:39:44;;;;;;;5.90;2.30;;;;;;;8.37;100.00;100272.98;223213;1265;139638;-85
2023/11/08 17:45:29;;;;;;;8.90;3.70;;;;;;;8.23;100.00;100282.39;223680;1265;138547;-83
2023/11/08 17:51:28;;;;;;;9.40;5.00;;;;;;;8.16;100.00;100284.73;223225;1266;139477;-83
2023/11/08 17:57:29;;;;;;;12.40;6.30;;;;;;;8.09;100.00;100278.88;223579;1265;139004;-83
2023/11/08 18:09:40;;;;;;;;;;;;;;;;;;;;;
2023/11/08 18:15:45;;;;;;;38.20;11.20;;;;;;;7.92;100.00;100280.89;223587;1265;139554;-85
2023/11/08 18:21:35;;;;;;;34.80;13.30;;;;;;;7.85;100.00;100283.91;223223;1266;140050;-84
2023/11/08 18:27:28;;;;;;;21.30;9.50;;;;;;;7.77;100.00;100282.25;223597;1266;139362;-85
2023/11/08 18:33:17;;;;;;;16.80;7.60;;;;;;;7.71;100.00;100281.58;223758;1265;139323;-84
2023/11/08 18:39:15;;;;;;;15.20;7.80;;;;;;;7.63;100.00;100284.08;223176;1266;139836;-84
2023/11/08 18:45:14;;;;;;;15.30;6.70;;;;;;;7.53;100.00;100287.17;223621;1265;138599;-84
2023/11/08 18:51:17;;;;;;;12.70;6.90;;;;;;;7.46;100.00;100294.20;223152;1265;141195;-84
2023/11/08 18:57:08;;;;;;;;;;;;;;;;;;;;;
2023/11/08 19:03:02;;;;;;;;;;;;;;;;;;;;;
2023/11/08 19:09:05;;;;;;;24.20;13.50;;;;;;;7.28;100.00;100303.29;223122;1265;140293;-87
2023/11/08 19:21:07;;;;;;;23.70;12.60;;;;;;;7.24;100.00;100306.70;223090;1265;139771;-87
2023/11/08 19:27:08;;;;;;;27.50;13.70;;;;;;;7.22;100.00;100304.33;223639;1265;139283;-86
2023/11/08 19:32:53;;;;;;;23.00;12.90;;;;;;;7.19;100.00;100305.02;223195;1265;140101;-87
2023/11/08 19:39:21;;;;;;;28.20;14.10;;;;;;;7.14;100.00;100308.05;223111;1265;139924;-87
2023/11/08 19:44:59;;;;;;;25.20;13.30;;;;;;;7.09;100.00;100301.52;223661;1265;139200;-85
2023/11/08 19:50:57;;;;;;;26.40;14.00;;;;;;;7.00;100.00;100305.61;223346;1265;140076;-87
2023/11/08 19:56:47;;;;;;;;;;;;;;;;;;;;;
2023/11/08 20:02:22;;;;;;;43.80;21.00;;;;;;;6.84;100.00;100302.56;223130;1265;140819;-87
2023/11/08 20:08:22;;;;;;;43.70;21.50;;;;;;;6.79;100.00;100303.32;223308;1265;139983;-88
2023/11/08 20:14:22;;;;;;;;;;;;;;;;;;;;;
2023/11/08 20:20:17;;;;;;;37.80;20.10;;;;;;;6.70;100.00;100312.16;223290;1265;139976;-86
2023/11/08 20:26:10;;;;;;;;;;;;;;;;;;;;;
2023/11/08 20:32:14;;;;;;;32.80;17.10;;;;;;;6.60;100.00;100310.18;223343;1265;139976;-87
2023/11/08 20:38:16;;;;;;;29.40;16.20;;;;;;;6.54;100.00;100308.58;223173;1265;140202;-88
2023/11/08 20:44:18;;;;;;;32.70;16.60;;;;;;;6.49;100.00;100307.80;223977;1265;107254;-88
2023/11/08 20:56:18;;;;;;;29.10;14.30;;;;;;;6.39;100.00;100300.52;223880;1265;95991;-87
2023/11/08 21:02:20;;;;;;;21.30;11.90;;;;;;;6.35;100.00;100296.67;223329;1265;139953;-87
2023/11/08 21:08:21;;;;;;;29.90;14.70;;;;;;;6.31;100.00;100293.73;223316;1265;140207;-92
2023/11/08 21:14:23;;;;;;;26.80;14.30;;;;;;;6.26;100.00;100289.77;223886;1269;139881;-92
2023/11/08 21:20:25;;;;;;;26.20;13.40;;;;;;;6.20;100.00;100292.45;223534;1265;140389;-93
2023/11/08 21:26:19;;;;;;;25.80;13.80;;;;;;;6.15;100.00;100296.13;224007;1265;138572;-94
2023/11/08 21:38:23;;;;;;;26.30;13.70;;;;;;;6.05;100.00;100286.65;223551;1265;141335;-94
2023/11/08 21:44:25;;;;;;;30.20;14.00;;;;;;;6.01;100.00;100292.25;223893;1265;137627;-94
2023/11/08 21:50:18;;;;;;;;;;;;;;;;;;;;;
2023/11/08 21:56:21;;;;;;;28.30;14.00;;;;;;;5.92;100.00;100288.89;224030;1266;138649;-95
2023/11/08 22:38:02;;;;;;;28.20;13.50;;;;;;;5.66;100.00;100270.10;223425;1264;140045;-88
2023/11/08 22:49:49;;;;;;;;;;;;;;;;;;;;;
2023/11/08 22:55:54;;;;;;;19.00;9.90;;;;;;;5.45;100.00;100251.73;224081;1265;139386;-88
2023/11/08 23:01:54;;;;;;;20.60;9.90;;;;;;;5.39;100.00;100246.27;223672;1265;139406;-89
2023/11/08 23:07:56;;;;;;;16.90;9.20;;;;;;;5.35;100.00;100249.88;224042;1265;137355;-88
2023/11/08 23:13:57;;;;;;;19.20;9.50;;;;;;;5.31;100.00;100249.05;223809;1265;138433;-90
2023/11/08 23:19:58;;;;;;;17.70;8.60;;;;;;;5.28;100.00;100252.30;223373;1265;139979;-89
2023/11/08 23:31:59;;;;;;;;;;;;;;;;;;;;;
2023/11/08 23:38:02;;;;;;;17.70;9.00;;;;;;;5.19;100.00;100239.98;223925;1265;138714;-90
2023/11/08 23:44:07;;;;;;;20.20;9.30;;;;;;;5.16;100.00;100235.23;224074;1265;138636;-88
2023/11/08 23:50:06;;;;;;;15.60;8.60;;;;;;;5.14;100.00;100227.28;223415;1265;139847;-89
2023/11/08 23:55:52;;;;;;;;;;;;;;;;;;;;;
